createdAt,value
2017-12-08T00:01:57.299Z,87.47
2017-12-08T00:04:24.781Z,87.20
2017-12-08T00:06:52.219Z,87.25
2017-12-08T00:09:19.655Z,87.57
2017-12-08T00:11:47.107Z,87.26
2017-12-08T00:14:14.543Z,87.39
2017-12-08T00:16:42.003Z,87.65
2017-12-08T00:19:09.441Z,88.00
2017-12-08T00:21:36.909Z,88.19
2017-12-08T00:24:04.350Z,88.13
2017-12-08T00:26:31.812Z,88.67
2017-12-08T00:28:59.275Z,89.18
2017-12-08T00:31:26.735Z,88.67
2017-12-08T00:33:54.180Z,88.82
2017-12-08T00:36:21.626Z,89.68
2017-12-08T00:38:49.057Z,89.58
2017-12-08T00:41:16.532Z,89.60
2017-12-08T00:43:43.967Z,89.75
2017-12-08T00:46:11.418Z,89.62
2017-12-08T00:48:38.854Z,89.18
2017-12-08T00:51:06.286Z,88.84
2017-12-08T00:53:33.763Z,89.43
2017-12-08T00:56:01.195Z,89.71
2017-12-08T00:58:28.651Z,89.42
2017-12-08T01:00:56.099Z,89.60
2017-12-08T01:03:23.565Z,88.46
2017-12-08T01:05:51.028Z,88.97
2017-12-08T01:08:18.515Z,88.53
2017-12-08T01:10:45.949Z,88.81
2017-12-08T01:13:13.410Z,88.54
2017-12-08T01:15:40.872Z,88.43
2017-12-08T01:18:08.465Z,88.85
2017-12-08T01:20:35.940Z,88.46
2017-12-08T01:23:03.427Z,88.30
2017-12-08T01:25:30.935Z,87.89
2017-12-08T01:27:58.873Z,88.40
2017-12-08T01:30:26.378Z,89.14
2017-12-08T01:32:53.856Z,89.03
2017-12-08T01:35:21.432Z,89.51
2017-12-08T01:37:48.868Z,89.88
2017-12-08T01:40:16.337Z,90.24
2017-12-08T01:42:43.780Z,90.05
2017-12-08T01:45:11.245Z,90.99
2017-12-08T01:47:38.697Z,89.84
2017-12-08T01:50:06.169Z,89.56
2017-12-08T01:52:33.619Z,89.90
2017-12-08T01:55:01.076Z,90.09
2017-12-08T01:57:28.548Z,90.89
2017-12-08T01:59:55.993Z,91.54
2017-12-08T02:02:23.493Z,91.82
2017-12-08T02:04:50.948Z,93.17
2017-12-08T02:07:18.428Z,92.56
2017-12-08T02:09:45.887Z,91.45
2017-12-08T02:12:13.368Z,91.16
2017-12-08T02:14:40.821Z,90.62
2017-12-08T02:17:08.289Z,88.99
2017-12-08T02:19:35.738Z,86.78
2017-12-08T02:22:03.253Z,83.94
2017-12-08T02:24:30.696Z,81.53
2017-12-08T02:26:58.173Z,82.91
2017-12-08T02:29:25.629Z,81.98
2017-12-08T02:31:53.075Z,81.13
2017-12-08T02:34:20.552Z,81.29
2017-12-08T02:36:48.012Z,81.25
2017-12-08T02:39:15.471Z,80.47
2017-12-08T02:41:42.925Z,81.67
2017-12-08T02:44:10.395Z,82.67
2017-12-08T02:46:37.844Z,81.78
2017-12-08T02:49:05.316Z,81.93
2017-12-08T02:51:32.776Z,82.08
2017-12-08T02:54:00.248Z,81.68
2017-12-08T02:56:27.696Z,81.77
2017-12-08T02:58:55.156Z,82.39
2017-12-08T03:01:22.613Z,82.11
2017-12-08T03:03:50.085Z,82.52
2017-12-08T03:06:17.528Z,82.84
2017-12-08T03:08:45.027Z,83.03
2017-12-08T03:11:12.477Z,83.18
2017-12-08T03:13:39.935Z,83.44
2017-12-08T03:16:07.417Z,83.88
2017-12-08T03:18:34.883Z,83.69
2017-12-08T03:21:02.361Z,84.38
2017-12-08T03:23:29.817Z,84.57
2017-12-08T03:25:57.288Z,84.39
2017-12-08T03:28:24.737Z,83.69
2017-12-08T03:30:52.205Z,83.87
2017-12-08T03:33:19.665Z,83.92
2017-12-08T03:35:47.138Z,83.84
2017-12-08T03:38:14.579Z,84.25
2017-12-08T03:40:42.053Z,84.16
2017-12-08T03:43:09.534Z,84.01
2017-12-08T03:45:37.020Z,83.55
2017-12-08T03:48:04.485Z,83.61
2017-12-08T03:50:31.941Z,83.82
2017-12-08T03:52:59.441Z,83.50
2017-12-08T03:55:26.909Z,83.17
2017-12-08T03:57:54.385Z,83.73
2017-12-08T04:00:21.851Z,83.79
2017-12-08T04:02:49.323Z,83.77
2017-12-08T04:05:16.776Z,84.06
2017-12-08T04:07:44.245Z,83.91
2017-12-08T04:10:11.701Z,83.55
2017-12-08T04:12:39.173Z,83.45
2017-12-08T04:15:06.633Z,83.02
2017-12-08T04:17:34.123Z,84.04
2017-12-08T04:20:01.620Z,84.26
2017-12-08T04:22:29.092Z,84.73
2017-12-08T04:24:56.557Z,85.00
2017-12-08T04:27:24.133Z,84.81
2017-12-08T04:29:51.581Z,84.42
2017-12-08T04:32:19.069Z,83.43
2017-12-08T04:34:46.524Z,83.01
2017-12-08T04:37:13.978Z,82.92
2017-12-08T04:39:41.476Z,82.24
2017-12-08T04:42:08.929Z,83.41
2017-12-08T04:44:36.409Z,82.16
2017-12-08T04:47:03.857Z,82.14
2017-12-08T04:49:31.330Z,82.99
2017-12-08T04:51:58.801Z,83.75
2017-12-08T04:54:26.372Z,83.36
2017-12-08T04:56:53.820Z,83.31
2017-12-08T04:59:21.288Z,84.03
2017-12-08T05:01:48.741Z,84.52
2017-12-08T05:04:16.212Z,83.78
2017-12-08T05:06:43.748Z,83.34
2017-12-08T05:09:11.216Z,83.49
2017-12-08T05:11:38.668Z,83.40
2017-12-08T05:14:06.145Z,82.96
2017-12-08T05:16:33.681Z,83.16
2017-12-08T05:19:01.155Z,83.35
2017-12-08T05:21:28.600Z,83.88
2017-12-08T05:23:56.053Z,83.02
2017-12-08T05:26:23.616Z,82.28
2017-12-08T05:28:51.074Z,81.65
2017-12-08T05:31:18.539Z,81.33
2017-12-08T05:33:45.989Z,81.21
2017-12-08T05:36:13.460Z,81.67
2017-12-08T05:38:40.931Z,82.12
2017-12-08T05:41:08.401Z,82.66
2017-12-08T05:43:35.867Z,82.40
2017-12-08T05:46:03.360Z,82.19
2017-12-08T05:48:30.803Z,82.97
2017-12-08T05:50:58.283Z,82.76
2017-12-08T05:53:25.737Z,82.04
2017-12-08T05:55:53.284Z,82.51
2017-12-08T05:58:20.729Z,82.91
2017-12-08T06:00:48.201Z,83.22
2017-12-08T06:03:15.683Z,83.30
2017-12-08T06:05:43.508Z,83.68
2017-12-08T06:08:10.986Z,83.10
2017-12-08T06:10:38.478Z,83.95
2017-12-08T06:13:05.932Z,83.84
2017-12-08T06:15:33.379Z,82.70
2017-12-08T06:18:00.849Z,81.41
2017-12-08T06:20:28.305Z,81.51
2017-12-08T06:22:55.769Z,80.27
2017-12-08T06:25:23.213Z,80.67
2017-12-08T06:27:50.727Z,81.04
2017-12-08T06:30:18.181Z,81.95
2017-12-08T06:32:45.681Z,81.65
2017-12-08T06:35:13.133Z,82.34
2017-12-08T06:37:40.613Z,82.95
2017-12-08T06:40:08.069Z,83.28
2017-12-08T06:42:35.562Z,83.54
2017-12-08T06:45:03.017Z,83.86
2017-12-08T06:47:30.484Z,84.04
2017-12-08T06:49:57.936Z,84.30
2017-12-08T06:52:26.290Z,84.13
2017-12-08T06:54:53.801Z,84.39
2017-12-08T06:57:21.902Z,84.11
2017-12-08T06:59:49.869Z,84.32
2017-12-08T07:02:17.353Z,84.10
2017-12-08T07:04:44.825Z,84.65
2017-12-08T07:07:12.275Z,85.06
2017-12-08T07:09:39.844Z,85.31
2017-12-08T07:12:07.294Z,85.95
2017-12-08T07:14:34.769Z,85.99
2017-12-08T07:17:02.216Z,85.47
2017-12-08T07:19:29.685Z,84.52
2017-12-08T07:21:57.137Z,84.57
2017-12-08T07:24:24.843Z,84.68
2017-12-08T07:26:52.332Z,84.64
2017-12-08T07:29:19.810Z,84.58
2017-12-08T07:31:47.255Z,84.14
2017-12-08T07:34:14.731Z,84.44
2017-12-08T07:36:42.277Z,85.03
2017-12-08T07:39:09.758Z,85.14
2017-12-08T07:41:37.201Z,84.10
2017-12-08T07:44:04.662Z,84.65
2017-12-08T07:46:32.135Z,85.36
2017-12-08T07:48:59.592Z,85.03
2017-12-08T07:51:27.051Z,86.12
2017-12-08T07:53:54.501Z,86.06
2017-12-08T07:56:21.973Z,85.26
2017-12-08T07:58:49.508Z,85.50
2017-12-08T08:01:17.023Z,85.30
2017-12-08T08:03:44.436Z,85.38
2017-12-08T08:06:11.897Z,85.22
2017-12-08T08:08:39.349Z,84.89
2017-12-08T08:11:06.830Z,84.26
2017-12-08T08:13:34.331Z,84.19
2017-12-08T08:16:01.769Z,84.26
2017-12-08T08:18:29.241Z,82.65
2017-12-08T08:20:56.697Z,81.14
2017-12-08T08:23:24.277Z,79.94
2017-12-08T08:25:51.725Z,79.59
2017-12-08T08:28:19.205Z,78.60
2017-12-08T08:30:46.674Z,78.00
2017-12-08T08:33:14.156Z,77.35
2017-12-08T08:35:41.610Z,76.22
2017-12-08T08:38:09.074Z,77.13
2017-12-08T08:40:36.531Z,76.80
2017-12-08T08:43:04.013Z,76.43
2017-12-08T08:45:31.470Z,76.22
2017-12-08T08:47:58.944Z,76.72
2017-12-08T08:50:26.421Z,76.07
2017-12-08T08:52:53.872Z,75.45
2017-12-08T08:55:21.340Z,74.91
2017-12-08T08:57:48.856Z,74.45
2017-12-08T09:00:16.320Z,74.57
2017-12-08T09:02:43.778Z,74.15
2017-12-08T09:05:11.248Z,73.79
2017-12-08T09:07:38.709Z,74.28
2017-12-08T09:10:06.235Z,74.52
2017-12-08T09:12:33.676Z,73.82
2017-12-08T09:15:01.125Z,74.07
2017-12-08T09:17:28.616Z,73.35
2017-12-08T09:19:56.062Z,73.49
2017-12-08T09:22:23.534Z,73.85
2017-12-08T09:24:50.980Z,73.90
2017-12-08T09:27:18.453Z,72.42
2017-12-08T09:29:46.007Z,73.04
2017-12-08T09:32:13.558Z,72.36
2017-12-08T09:34:41.017Z,72.88
2017-12-08T09:37:08.492Z,73.18
2017-12-08T09:39:36.027Z,71.93
2017-12-08T09:42:03.528Z,71.36
2017-12-08T09:44:31.044Z,71.30
2017-12-08T09:46:58.525Z,71.18
2017-12-08T09:49:25.972Z,70.56
2017-12-08T09:51:53.415Z,70.63
2017-12-08T09:54:20.925Z,71.04
2017-12-08T09:56:48.377Z,71.39
2017-12-08T09:59:15.886Z,70.64
2017-12-08T10:01:43.336Z,71.41
2017-12-08T10:04:10.812Z,70.20
2017-12-08T10:06:38.270Z,71.41
2017-12-08T10:09:05.742Z,70.61
2017-12-08T10:11:33.197Z,70.43
2017-12-08T10:14:00.675Z,71.10
2017-12-08T10:16:28.129Z,68.85
2017-12-08T10:18:55.645Z,69.54
2017-12-08T10:21:23.092Z,69.64
2017-12-08T10:26:17.305Z,70.05
2017-12-08T10:28:44.757Z,70.24
2017-12-08T10:31:12.237Z,68.80
2017-12-08T10:33:39.684Z,69.27
2017-12-08T10:36:07.149Z,69.57
2017-12-08T10:38:34.593Z,70.67
2017-12-08T10:41:02.061Z,69.67
2017-12-08T10:43:29.513Z,69.91
2017-12-08T10:45:56.987Z,70.75
2017-12-08T10:48:24.444Z,72.33
2017-12-08T10:50:51.909Z,73.19
2017-12-08T10:53:19.356Z,71.28
2017-12-08T10:55:46.825Z,70.37
2017-12-08T10:58:14.269Z,71.68
2017-12-08T11:00:44.652Z,71.33
2017-12-08T11:03:12.103Z,72.45
2017-12-08T11:05:39.543Z,73.01
2017-12-08T11:08:07.010Z,74.03
2017-12-08T11:10:34.455Z,73.93
2017-12-08T11:13:01.953Z,74.57
2017-12-08T11:15:29.419Z,75.02
2017-12-08T11:17:56.986Z,75.09
2017-12-08T11:20:24.424Z,74.74
2017-12-08T11:22:51.957Z,75.12
2017-12-08T11:25:19.426Z,75.89
2017-12-08T11:27:46.901Z,75.92
2017-12-08T11:30:14.365Z,75.79
2017-12-08T11:32:41.836Z,76.28
2017-12-08T11:35:09.293Z,76.42
2017-12-08T11:37:36.765Z,76.48
2017-12-08T11:40:04.214Z,74.95
2017-12-08T11:42:31.670Z,75.54
2017-12-08T11:44:59.135Z,74.49
2017-12-08T11:47:26.640Z,74.72
2017-12-08T11:49:54.113Z,75.11
2017-12-08T11:52:21.563Z,74.46
2017-12-08T11:54:49.034Z,74.77
2017-12-08T11:57:16.491Z,74.71
2017-12-08T11:59:44.425Z,74.65
2017-12-08T12:02:11.888Z,74.31
2017-12-08T12:04:39.367Z,74.75
2017-12-08T12:07:06.825Z,74.52
2017-12-08T12:09:34.305Z,74.08
2017-12-08T12:12:01.760Z,74.15
2017-12-08T12:14:29.216Z,73.91
2017-12-08T12:16:56.721Z,73.86
2017-12-08T12:19:24.271Z,74.15
2017-12-08T12:21:51.741Z,72.82
2017-12-08T12:24:19.189Z,72.70
2017-12-08T12:26:46.647Z,72.38
2017-12-08T12:29:14.103Z,72.64
2017-12-08T12:31:41.581Z,72.95
2017-12-08T12:34:09.034Z,71.54
2017-12-08T12:36:36.506Z,71.78
2017-12-08T12:39:04.007Z,71.88
2017-12-08T12:41:31.516Z,70.40
2017-12-08T12:43:58.981Z,71.11
2017-12-08T12:46:26.429Z,70.86
2017-12-08T12:48:53.901Z,69.43
2017-12-08T12:51:21.345Z,70.31
2017-12-08T12:53:48.834Z,69.89
2017-12-08T12:56:16.342Z,69.72
2017-12-08T12:58:43.821Z,68.59
2017-12-08T13:01:11.263Z,68.54
2017-12-08T13:03:38.732Z,67.74
2017-12-08T13:06:06.184Z,66.12
2017-12-08T13:08:33.651Z,66.98
2017-12-08T13:11:01.148Z,66.61
2017-12-08T13:13:28.594Z,67.11
2017-12-08T13:15:56.045Z,66.82
2017-12-08T13:18:23.525Z,65.84
2017-12-08T13:20:50.981Z,66.63
2017-12-08T13:23:18.588Z,65.35
2017-12-08T13:25:46.687Z,65.47
2017-12-08T13:28:15.055Z,64.78
2017-12-08T13:30:42.639Z,64.86
2017-12-08T13:33:10.129Z,63.05
2017-12-08T13:35:37.596Z,64.21
2017-12-08T13:38:05.144Z,63.90
2017-12-08T13:40:33.449Z,64.64
2017-12-08T13:43:00.971Z,63.96
2017-12-08T13:45:28.431Z,64.30
2017-12-08T13:47:55.882Z,64.17
2017-12-08T13:50:23.357Z,63.24
2017-12-08T13:52:50.809Z,63.65
2017-12-08T13:55:30.201Z,63.83
2017-12-08T13:57:57.647Z,63.63
2017-12-08T14:00:25.114Z,64.10
2017-12-08T14:02:52.563Z,64.30
2017-12-08T14:05:20.049Z,65.51
2017-12-08T14:07:47.497Z,65.74
2017-12-08T14:10:14.984Z,65.05
2017-12-08T14:12:42.432Z,64.41
2017-12-08T14:15:10.244Z,65.34
2017-12-08T14:17:38.124Z,65.07
2017-12-08T14:20:05.573Z,64.75
2017-12-08T14:22:33.036Z,65.26
2017-12-08T14:25:00.547Z,64.92
2017-12-08T14:27:28.016Z,65.48
2017-12-08T14:29:55.468Z,66.07
2017-12-08T14:32:23.001Z,65.98
2017-12-08T14:34:50.635Z,66.93
2017-12-08T14:37:18.109Z,67.20
2017-12-08T14:39:45.601Z,66.99
2017-12-08T14:42:13.151Z,66.73
2017-12-08T14:44:40.625Z,67.53
2017-12-08T14:47:08.078Z,67.25
2017-12-08T14:49:35.562Z,67.08
2017-12-08T14:52:03.063Z,67.33
2017-12-08T14:54:30.528Z,66.69
2017-12-08T14:56:58.103Z,66.90
2017-12-08T14:59:25.577Z,66.75
2017-12-08T15:01:53.057Z,67.23
2017-12-08T15:04:20.809Z,67.33
2017-12-08T15:06:50.590Z,68.01
2017-12-08T15:09:18.137Z,68.11
2017-12-08T15:11:45.590Z,67.80
2017-12-08T15:14:13.065Z,67.47
2017-12-08T15:16:40.517Z,68.13
2017-12-08T15:19:07.988Z,67.91
2017-12-08T15:24:02.215Z,68.29
2017-12-08T15:26:29.680Z,68.43
2017-12-08T15:28:57.131Z,68.62
2017-12-08T15:31:24.596Z,68.56
2017-12-08T15:33:52.045Z,69.01
2017-12-08T15:38:46.258Z,68.82
2017-12-08T15:41:13.732Z,68.55
2017-12-08T15:43:41.181Z,68.59
2017-12-08T15:46:08.646Z,69.11
2017-12-08T15:48:36.084Z,69.42
2017-12-08T15:51:03.555Z,69.30
2017-12-08T15:53:31.006Z,69.61
2017-12-08T15:55:58.581Z,69.63
2017-12-08T15:58:26.032Z,69.80
2017-12-08T16:00:53.521Z,69.44
2017-12-08T16:03:20.975Z,69.98
2017-12-08T16:05:48.420Z,69.85
2017-12-08T16:08:15.878Z,69.90
2017-12-08T16:10:43.330Z,69.98
2017-12-08T16:13:10.807Z,69.74
2017-12-08T16:15:38.262Z,70.10
2017-12-08T16:18:05.743Z,69.89
2017-12-08T16:20:33.192Z,70.19
2017-12-08T16:23:00.660Z,70.15
2017-12-08T16:25:28.158Z,69.69
2017-12-08T16:27:55.713Z,70.49
2017-12-08T16:30:23.169Z,70.63
2017-12-08T16:32:50.628Z,70.93
2017-12-08T16:35:18.105Z,71.03
2017-12-08T16:37:45.565Z,70.97
2017-12-08T16:40:13.102Z,71.25
2017-12-08T16:42:40.561Z,70.72
2017-12-08T16:45:08.038Z,71.30
2017-12-08T16:47:35.525Z,71.20
2017-12-08T16:50:03.005Z,71.72
2017-12-08T16:52:30.484Z,70.95
2017-12-08T16:54:57.948Z,71.53
2017-12-08T16:57:25.397Z,71.47
2017-12-08T16:59:52.854Z,70.57
2017-12-08T17:02:20.320Z,70.67
2017-12-08T17:04:47.773Z,70.80
2017-12-08T17:07:15.282Z,70.73
2017-12-08T17:09:42.748Z,70.73
2017-12-08T17:12:10.245Z,71.02
2017-12-08T17:14:37.722Z,71.05
2017-12-08T17:17:05.261Z,71.10
2017-12-08T17:19:32.724Z,71.27
2017-12-08T17:22:00.197Z,70.78
2017-12-08T17:24:27.663Z,70.42
2017-12-08T17:26:55.164Z,70.26
2017-12-08T17:29:22.645Z,70.53
2017-12-08T17:31:50.101Z,70.17
2017-12-08T17:34:17.569Z,70.26
2017-12-08T17:36:45.025Z,70.02
2017-12-08T17:39:12.500Z,70.52
2017-12-08T17:41:40.047Z,70.61
2017-12-08T17:44:07.516Z,70.73
2017-12-08T17:46:34.969Z,70.26
2017-12-08T17:49:02.440Z,70.85
2017-12-08T17:51:29.895Z,71.16
2017-12-08T17:53:57.369Z,70.51
2017-12-08T17:56:24.821Z,70.85
2017-12-08T17:58:52.285Z,70.16
2017-12-08T18:01:19.771Z,70.17
2017-12-08T18:03:47.237Z,69.48
2017-12-08T18:06:14.725Z,69.60
2017-12-08T18:08:42.244Z,69.76
2017-12-08T18:11:09.709Z,69.94
2017-12-08T18:13:37.161Z,69.27
2017-12-08T18:16:04.640Z,69.97
2017-12-08T18:18:32.187Z,70.17
2017-12-08T18:20:59.740Z,69.76
2017-12-08T18:23:27.200Z,69.90
2017-12-08T18:25:54.690Z,69.77
2017-12-08T18:28:22.135Z,69.58
2017-12-08T18:30:49.596Z,68.95
2017-12-08T18:33:17.069Z,68.94
2017-12-08T18:35:44.650Z,69.33
2017-12-08T18:38:12.125Z,69.43
2017-12-08T18:40:39.578Z,69.00
2017-12-08T18:43:07.044Z,69.19
2017-12-08T18:45:34.609Z,69.85
2017-12-08T18:48:02.089Z,70.45
2017-12-08T18:50:29.630Z,72.51
2017-12-08T18:52:57.100Z,73.67
2017-12-08T18:55:24.553Z,75.58
2017-12-08T18:57:52.054Z,76.21
2017-12-08T19:00:19.506Z,77.12
2017-12-08T19:02:47.005Z,78.05
2017-12-08T19:05:14.458Z,77.59
2017-12-08T19:07:48.189Z,78.34
2017-12-08T19:10:15.953Z,77.87
2017-12-08T19:12:43.408Z,78.52
2017-12-08T19:15:10.885Z,77.41
2017-12-08T19:17:38.327Z,77.53
2017-12-08T19:20:05.798Z,78.01
2017-12-08T19:22:33.248Z,77.63
2017-12-08T19:25:00.716Z,77.51
2017-12-08T19:27:28.204Z,77.93
2017-12-08T19:29:55.734Z,78.37
2017-12-08T19:32:23.245Z,77.98
2017-12-08T19:34:50.797Z,77.56
2017-12-08T19:37:18.283Z,78.30
2017-12-08T19:39:45.737Z,77.27
2017-12-08T19:42:13.221Z,76.56
2017-12-08T19:44:40.669Z,77.41
2017-12-08T19:47:08.140Z,77.25
2017-12-08T19:49:35.588Z,77.62
2017-12-08T19:52:03.057Z,77.48
2017-12-08T19:54:30.552Z,77.11
2017-12-08T19:56:58.025Z,78.00
2017-12-08T19:59:25.480Z,77.12
2017-12-08T20:01:53.032Z,77.39
2017-12-08T20:04:20.490Z,78.49
2017-12-08T20:06:47.965Z,77.87
2017-12-08T20:09:15.412Z,78.96
2017-12-08T20:11:42.921Z,78.99
2017-12-08T20:14:10.372Z,79.16
2017-12-08T20:16:37.825Z,78.57
2017-12-08T20:19:05.292Z,78.83
2017-12-08T20:21:32.759Z,78.16
2017-12-08T20:24:00.225Z,78.29
2017-12-08T20:26:27.685Z,78.05
2017-12-08T20:28:55.217Z,78.50
2017-12-08T20:31:22.673Z,78.13
2017-12-08T20:33:50.151Z,77.62
2017-12-08T20:36:17.601Z,77.81
2017-12-08T20:38:45.075Z,77.80
2017-12-08T20:41:12.637Z,77.93
2017-12-08T20:43:40.196Z,77.28
2017-12-08T20:46:07.649Z,77.85
2017-12-08T20:48:35.096Z,77.81
2017-12-08T20:51:02.571Z,77.72
2017-12-08T20:53:30.020Z,77.75
2017-12-08T20:55:57.489Z,77.69
2017-12-08T20:58:24.946Z,77.56
2017-12-08T21:00:52.424Z,77.79
2017-12-08T21:03:19.872Z,77.33
2017-12-08T21:05:47.341Z,77.22
2017-12-08T21:08:14.795Z,77.35
2017-12-08T21:10:42.363Z,77.46
2017-12-08T21:13:09.825Z,77.06
2017-12-08T21:15:37.280Z,76.83
2017-12-08T21:18:04.764Z,77.01
2017-12-08T21:20:32.222Z,76.47
2017-12-08T21:22:59.713Z,76.37
2017-12-08T21:25:27.164Z,75.83
2017-12-08T21:27:54.642Z,75.93
2017-12-08T21:30:22.096Z,75.32
2017-12-08T21:32:49.628Z,75.19
2017-12-08T21:35:17.080Z,77.80
2017-12-08T21:37:44.576Z,74.63
2017-12-08T21:40:12.101Z,73.44
2017-12-08T21:42:39.553Z,73.77
2017-12-08T21:45:07.024Z,74.05
2017-12-08T21:47:34.482Z,74.27
2017-12-08T21:50:01.969Z,74.67
2017-12-08T21:52:29.415Z,74.11
2017-12-08T21:54:56.924Z,74.29
2017-12-08T21:57:24.381Z,74.27
2017-12-08T21:59:51.857Z,74.82
2017-12-08T22:02:19.313Z,74.78
2017-12-08T22:04:46.797Z,74.98
2017-12-08T22:07:14.313Z,75.43
2017-12-08T22:09:41.753Z,75.20
2017-12-08T22:12:09.234Z,74.78
2017-12-08T22:14:36.725Z,74.85
2017-12-08T22:17:04.204Z,74.97
2017-12-08T22:19:31.711Z,75.00
2017-12-08T22:21:59.162Z,75.02
2017-12-08T22:24:26.641Z,74.34
2017-12-08T22:26:54.092Z,74.38
2017-12-08T22:29:21.536Z,73.16
2017-12-08T22:31:49.009Z,73.33
2017-12-08T22:34:16.473Z,73.68
2017-12-08T22:36:43.945Z,73.91
2017-12-08T22:39:11.400Z,73.73
2017-12-08T22:41:38.957Z,73.48
2017-12-08T22:44:06.411Z,73.24
2017-12-08T22:46:33.885Z,73.09
2017-12-08T22:49:01.754Z,73.21
2017-12-08T22:51:29.267Z,73.05
2017-12-08T22:53:56.720Z,72.84
2017-12-08T22:56:24.243Z,72.71
2017-12-08T22:58:51.696Z,73.35
2017-12-08T23:01:19.196Z,72.94
2017-12-08T23:03:46.753Z,72.45
2017-12-08T23:06:14.225Z,73.00
2017-12-08T23:08:41.681Z,72.61
2017-12-08T23:11:09.166Z,72.55
2017-12-08T23:13:36.625Z,72.24
2017-12-08T23:16:04.100Z,71.89
2017-12-08T23:18:31.553Z,72.05
2017-12-08T23:20:59.005Z,72.43
2017-12-08T23:23:26.512Z,71.72
2017-12-08T23:25:53.961Z,71.64
2017-12-08T23:28:21.437Z,71.61
2017-12-08T23:30:48.883Z,71.59
2017-12-08T23:33:16.347Z,72.14
2017-12-08T23:35:43.809Z,72.26
2017-12-08T23:38:11.348Z,71.99
2017-12-08T23:40:38.807Z,71.91
2017-12-08T23:43:06.276Z,71.79
2017-12-08T23:45:33.752Z,72.01
2017-12-08T23:48:01.282Z,71.58
2017-12-08T23:50:28.738Z,72.21
2017-12-08T23:52:56.217Z,72.52
2017-12-08T23:55:23.676Z,72.60
2017-12-08T23:57:51.436Z,72.21
